sensor_id;sensor_type;location;lat;lon;timestamp;P1;durP1;ratioP1;P2;durP2;ratioP2
9128;SDS011;4599;50.906;6.786;2022-08-03T00:01:21;4.40;;;2.17;;
9128;SDS011;4599;50.906;6.786;2022-08-03T00:05:23;4.23;;;2.30;;
9128;SDS011;4599;50.906;6.786;2022-08-03T00:09:26;2.20;;;2.00;;
9128;SDS011;4599;50.906;6.786;2022-08-03T00:13:36;8.77;;;2.00;;
9128;SDS011;4599;50.906;6.786;2022-08-03T00:17:38;2.33;;;1.90;;
9128;SDS011;4599;50.906;6.786;2022-08-03T00:21:54;4.63;;;2.17;;
9128;SDS011;4599;50.906;6.786;2022-08-03T00:25:57;5.57;;;1.90;;
9128;SDS011;4599;50.906;6.786;2022-08-03T00:29:58;5.80;;;2.10;;
9128;SDS011;4599;50.906;6.786;2022-08-03T00:34:00;5.47;;;2.20;;
9128;SDS011;4599;50.906;6.786;2022-08-03T00:38:04;2.57;;;2.00;;
9128;SDS011;4599;50.906;6.786;2022-08-03T00:42:07;2.60;;;2.20;;
9128;SDS011;4599;50.906;6.786;2022-08-03T00:46:10;3.47;;;2.10;;
9128;SDS011;4599;50.906;6.786;2022-08-03T00:50:12;2.37;;;2.03;;
9128;SDS011;4599;50.906;6.786;2022-08-03T00:54:14;2.40;;;2.17;;
9128;SDS011;4599;50.906;6.786;2022-08-03T00:58:17;3.83;;;2.30;;
9128;SDS011;4599;50.906;6.786;2022-08-03T01:02:19;2.77;;;2.10;;
9128;SDS011;4599;50.906;6.786;2022-08-03T01:06:22;2.77;;;2.33;;
9128;SDS011;4599;50.906;6.786;2022-08-03T01:10:32;4.80;;;2.37;;
9128;SDS011;4599;50.906;6.786;2022-08-03T01:14:55;3.23;;;2.47;;
9128;SDS011;4599;50.906;6.786;2022-08-03T01:19:07;4.27;;;2.50;;
9128;SDS011;4599;50.906;6.786;2022-08-03T01:23:26;2.90;;;2.10;;
9128;SDS011;4599;50.906;6.786;2022-08-03T01:27:42;2.90;;;2.37;;
9128;SDS011;4599;50.906;6.786;2022-08-03T01:31:56;2.90;;;2.60;;
9128;SDS011;4599;50.906;6.786;2022-08-03T01:36:23;4.00;;;2.17;;
9128;SDS011;4599;50.906;6.786;2022-08-03T01:40:30;2.43;;;2.07;;
9128;SDS011;4599;50.906;6.786;2022-08-03T01:44:37;3.43;;;2.20;;
9128;SDS011;4599;50.906;6.786;2022-08-03T01:48:45;5.07;;;2.50;;
9128;SDS011;4599;50.906;6.786;2022-08-03T01:52:48;3.83;;;2.50;;
9128;SDS011;4599;50.906;6.786;2022-08-03T01:56:51;2.70;;;2.30;;
9128;SDS011;4599;50.906;6.786;2022-08-03T02:00:54;3.43;;;2.00;;
9128;SDS011;4599;50.906;6.786;2022-08-03T02:04:58;3.33;;;2.30;;
9128;SDS011;4599;50.906;6.786;2022-08-03T02:09:01;2.10;;;2.00;;
9128;SDS011;4599;50.906;6.786;2022-08-03T02:13:06;2.80;;;2.30;;
9128;SDS011;4599;50.906;6.786;2022-08-03T02:17:09;2.67;;;2.33;;
9128;SDS011;4599;50.906;6.786;2022-08-03T02:21:13;2.97;;;2.53;;
9128;SDS011;4599;50.906;6.786;2022-08-03T02:25:37;5.10;;;2.67;;
9128;SDS011;4599;50.906;6.786;2022-08-03T02:29:43;2.23;;;2.00;;
9128;SDS011;4599;50.906;6.786;2022-08-03T02:33:49;2.43;;;2.20;;
9128;SDS011;4599;50.906;6.786;2022-08-03T02:37:57;3.97;;;2.40;;
9128;SDS011;4599;50.906;6.786;2022-08-03T02:42:02;4.33;;;2.40;;
9128;SDS011;4599;50.906;6.786;2022-08-03T02:46:09;4.07;;;2.53;;
9128;SDS011;4599;50.906;6.786;2022-08-03T02:50:15;2.80;;;2.53;;
9128;SDS011;4599;50.906;6.786;2022-08-03T02:54:18;2.60;;;2.40;;
9128;SDS011;4599;50.906;6.786;2022-08-03T02:58:23;3.00;;;2.50;;
9128;SDS011;4599;50.906;6.786;2022-08-03T03:02:25;2.60;;;2.30;;
9128;SDS011;4599;50.906;6.786;2022-08-03T03:06:28;3.37;;;2.50;;
9128;SDS011;4599;50.906;6.786;2022-08-03T03:10:32;3.20;;;2.43;;
9128;SDS011;4599;50.906;6.786;2022-08-03T03:14:34;3.63;;;2.47;;
9128;SDS011;4599;50.906;6.786;2022-08-03T03:18:37;6.37;;;2.37;;
9128;SDS011;4599;50.906;6.786;2022-08-03T03:22:40;2.60;;;2.33;;
9128;SDS011;4599;50.906;6.786;2022-08-03T03:26:46;3.47;;;2.77;;
9128;SDS011;4599;50.906;6.786;2022-08-03T03:30:48;3.07;;;2.40;;
9128;SDS011;4599;50.906;6.786;2022-08-03T03:34:53;3.97;;;2.60;;
9128;SDS011;4599;50.906;6.786;2022-08-03T03:38:56;5.47;;;2.50;;
9128;SDS011;4599;50.906;6.786;2022-08-03T03:42:59;3.77;;;2.50;;
9128;SDS011;4599;50.906;6.786;2022-08-03T03:47:00;5.93;;;2.63;;
9128;SDS011;4599;50.906;6.786;2022-08-03T03:51:03;2.77;;;2.57;;
9128;SDS011;4599;50.906;6.786;2022-08-03T03:55:05;3.87;;;2.80;;
9128;SDS011;4599;50.906;6.786;2022-08-03T03:59:10;6.13;;;4.80;;
9128;SDS011;4599;50.906;6.786;2022-08-03T04:03:11;4.53;;;2.87;;
9128;SDS011;4599;50.906;6.786;2022-08-03T04:07:13;3.53;;;2.50;;
9128;SDS011;4599;50.906;6.786;2022-08-03T04:11:16;2.60;;;2.40;;
9128;SDS011;4599;50.906;6.786;2022-08-03T04:15:30;3.13;;;2.60;;
9128;SDS011;4599;50.906;6.786;2022-08-03T04:19:35;4.30;;;2.70;;
9128;SDS011;4599;50.906;6.786;2022-08-03T04:23:41;3.50;;;2.50;;
9128;SDS011;4599;50.906;6.786;2022-08-03T04:27:46;6.53;;;2.73;;
9128;SDS011;4599;50.906;6.786;2022-08-03T04:32:11;3.50;;;2.33;;
9128;SDS011;4599;50.906;6.786;2022-08-03T04:36:15;3.83;;;2.70;;
9128;SDS011;4599;50.906;6.786;2022-08-03T04:40:20;2.77;;;2.33;;
9128;SDS011;4599;50.906;6.786;2022-08-03T04:44:30;2.83;;;2.50;;
9128;SDS011;4599;50.906;6.786;2022-08-03T04:48:38;2.90;;;2.17;;
9128;SDS011;4599;50.906;6.786;2022-08-03T04:52:44;4.70;;;2.50;;
9128;SDS011;4599;50.906;6.786;2022-08-03T04:56:46;5.53;;;2.77;;
9128;SDS011;4599;50.906;6.786;2022-08-03T05:00:48;3.33;;;2.40;;
9128;SDS011;4599;50.906;6.786;2022-08-03T05:04:51;3.50;;;2.50;;
9128;SDS011;4599;50.906;6.786;2022-08-03T05:08:53;3.73;;;2.60;;
9128;SDS011;4599;50.906;6.786;2022-08-03T05:12:54;6.67;;;2.60;;
9128;SDS011;4599;50.906;6.786;2022-08-03T05:16:56;6.37;;;2.73;;
9128;SDS011;4599;50.906;6.786;2022-08-03T05:20:59;3.20;;;2.37;;
9128;SDS011;4599;50.906;6.786;2022-08-03T05:25:00;5.70;;;2.60;;
9128;SDS011;4599;50.906;6.786;2022-08-03T05:29:02;4.03;;;2.27;;
9128;SDS011;4599;50.906;6.786;2022-08-03T05:33:04;4.43;;;2.17;;
9128;SDS011;4599;50.906;6.786;2022-08-03T05:37:07;2.10;;;1.87;;
9128;SDS011;4599;50.906;6.786;2022-08-03T05:41:09;2.97;;;2.67;;
9128;SDS011;4599;50.906;6.786;2022-08-03T05:45:24;2.83;;;2.20;;
9128;SDS011;4599;50.906;6.786;2022-08-03T05:49:28;5.33;;;2.40;;
9128;SDS011;4599;50.906;6.786;2022-08-03T05:53:34;3.53;;;2.13;;
9128;SDS011;4599;50.906;6.786;2022-08-03T05:57:36;3.73;;;2.57;;
9128;SDS011;4599;50.906;6.786;2022-08-03T06:01:41;2.87;;;2.10;;
9128;SDS011;4599;50.906;6.786;2022-08-03T06:05:42;6.17;;;2.30;;
9128;SDS011;4599;50.906;6.786;2022-08-03T06:10:03;2.90;;;2.30;;
9128;SDS011;4599;50.906;6.786;2022-08-03T06:14:25;2.50;;;2.10;;
9128;SDS011;4599;50.906;6.786;2022-08-03T06:18:27;5.23;;;2.17;;
9128;SDS011;4599;50.906;6.786;2022-08-03T06:22:29;5.97;;;2.60;;
9128;SDS011;4599;50.906;6.786;2022-08-03T06:26:32;3.33;;;1.90;;
9128;SDS011;4599;50.906;6.786;2022-08-03T06:30:33;4.20;;;1.90;;
9128;SDS011;4599;50.906;6.786;2022-08-03T06:34:35;4.07;;;2.40;;
9128;SDS011;4599;50.906;6.786;2022-08-03T06:38:37;2.87;;;1.87;;
9128;SDS011;4599;50.906;6.786;2022-08-03T06:42:41;10.80;;;2.40;;
9128;SDS011;4599;50.906;6.786;2022-08-03T06:46:44;4.60;;;2.20;;
9128;SDS011;4599;50.906;6.786;2022-08-03T06:50:46;3.70;;;2.20;;
9128;SDS011;4599;50.906;6.786;2022-08-03T06:54:47;2.90;;;1.90;;
9128;SDS011;4599;50.906;6.786;2022-08-03T06:58:51;3.00;;;2.00;;
9128;SDS011;4599;50.906;6.786;2022-08-03T07:02:52;3.53;;;2.20;;
9128;SDS011;4599;50.906;6.786;2022-08-03T07:06:58;3.93;;;2.30;;
9128;SDS011;4599;50.906;6.786;2022-08-03T07:11:00;7.47;;;2.10;;
9128;SDS011;4599;50.906;6.786;2022-08-03T07:15:03;8.00;;;2.03;;
9128;SDS011;4599;50.906;6.786;2022-08-03T07:19:06;4.27;;;1.87;;
9128;SDS011;4599;50.906;6.786;2022-08-03T07:23:07;5.03;;;2.00;;
9128;SDS011;4599;50.906;6.786;2022-08-03T07:27:09;7.87;;;1.90;;
9128;SDS011;4599;50.906;6.786;2022-08-03T07:31:12;5.00;;;1.63;;
9128;SDS011;4599;50.906;6.786;2022-08-03T07:35:14;7.13;;;2.10;;
9128;SDS011;4599;50.906;6.786;2022-08-03T07:39:25;5.60;;;1.63;;
9128;SDS011;4599;50.906;6.786;2022-08-03T07:43:27;5.70;;;1.90;;
9128;SDS011;4599;50.906;6.786;2022-08-03T07:47:30;3.67;;;1.53;;
9128;SDS011;4599;50.906;6.786;2022-08-03T07:51:36;6.13;;;1.53;;
9128;SDS011;4599;50.906;6.786;2022-08-03T07:55:38;7.28;;;1.90;;
9128;SDS011;4599;50.906;6.786;2022-08-03T07:59:40;3.27;;;1.80;;
9128;SDS011;4599;50.906;6.786;2022-08-03T08:04:03;9.50;;;1.80;;
9128;SDS011;4599;50.906;6.786;2022-08-03T08:08:05;7.30;;;1.88;;
9128;SDS011;4599;50.906;6.786;2022-08-03T08:12:07;5.60;;;1.45;;
9128;SDS011;4599;50.906;6.786;2022-08-03T08:16:15;6.78;;;1.70;;
9128;SDS011;4599;50.906;6.786;2022-08-03T08:20:19;2.97;;;1.40;;
9128;SDS011;4599;50.906;6.786;2022-08-03T08:24:28;5.70;;;2.28;;
9128;SDS011;4599;50.906;6.786;2022-08-03T08:28:31;6.28;;;1.73;;
9128;SDS011;4599;50.906;6.786;2022-08-03T08:32:34;4.15;;;1.67;;
9128;SDS011;4599;50.906;6.786;2022-08-03T08:36:37;10.90;;;1.70;;
9128;SDS011;4599;50.906;6.786;2022-08-03T08:40:38;3.55;;;1.60;;
9128;SDS011;4599;50.906;6.786;2022-08-03T08:44:40;2.78;;;1.50;;
9128;SDS011;4599;50.906;6.786;2022-08-03T08:48:42;6.97;;;1.55;;
9128;SDS011;4599;50.906;6.786;2022-08-03T08:52:47;9.60;;;2.33;;
9128;SDS011;4599;50.906;6.786;2022-08-03T08:56:50;6.50;;;1.83;;
9128;SDS011;4599;50.906;6.786;2022-08-03T09:00:53;2.53;;;1.95;;
9128;SDS011;4599;50.906;6.786;2022-08-03T09:04:55;3.40;;;1.80;;
9128;SDS011;4599;50.906;6.786;2022-08-03T09:08:59;3.65;;;1.70;;
9128;SDS011;4599;50.906;6.786;2022-08-03T09:13:01;3.63;;;1.80;;
9128;SDS011;4599;50.906;6.786;2022-08-03T09:17:03;3.78;;;1.60;;
9128;SDS011;4599;50.906;6.786;2022-08-03T09:21:12;4.05;;;1.90;;
9128;SDS011;4599;50.906;6.786;2022-08-03T09:25:33;12.57;;;1.77;;
9128;SDS011;4599;50.906;6.786;2022-08-03T09:29:36;3.70;;;1.50;;
9128;SDS011;4599;50.906;6.786;2022-08-03T09:33:45;3.88;;;1.88;;
9128;SDS011;4599;50.906;6.786;2022-08-03T09:37:47;5.97;;;2.00;;
9128;SDS011;4599;50.906;6.786;2022-08-03T09:42:16;3.60;;;1.85;;
9128;SDS011;4599;50.906;6.786;2022-08-03T09:46:24;5.22;;;1.80;;
9128;SDS011;4599;50.906;6.786;2022-08-03T09:50:25;8.25;;;1.70;;
9128;SDS011;4599;50.906;6.786;2022-08-03T09:54:27;5.25;;;1.80;;
9128;SDS011;4599;50.906;6.786;2022-08-03T09:58:31;3.67;;;1.80;;
9128;SDS011;4599;50.906;6.786;2022-08-03T10:02:33;4.32;;;1.70;;
9128;SDS011;4599;50.906;6.786;2022-08-03T10:06:34;3.85;;;1.60;;
9128;SDS011;4599;50.906;6.786;2022-08-03T10:10:40;3.13;;;1.80;;
9128;SDS011;4599;50.906;6.786;2022-08-03T10:14:45;4.38;;;1.80;;
9128;SDS011;4599;50.906;6.786;2022-08-03T10:18:47;3.13;;;1.92;;
9128;SDS011;4599;50.906;6.786;2022-08-03T10:22:48;5.15;;;1.73;;
9128;SDS011;4599;50.906;6.786;2022-08-03T10:26:50;2.40;;;1.70;;
9128;SDS011;4599;50.906;6.786;2022-08-03T10:31:02;3.47;;;1.80;;
9128;SDS011;4599;50.906;6.786;2022-08-03T10:35:06;6.32;;;2.05;;
9128;SDS011;4599;50.906;6.786;2022-08-03T10:39:22;4.57;;;1.70;;
9128;SDS011;4599;50.906;6.786;2022-08-03T10:43:28;8.45;;;1.67;;
9128;SDS011;4599;50.906;6.786;2022-08-03T10:47:37;3.50;;;1.70;;
9128;SDS011;4599;50.906;6.786;2022-08-03T10:51:40;4.20;;;2.00;;
9128;SDS011;4599;50.906;6.786;2022-08-03T10:55:43;7.10;;;1.90;;
9128;SDS011;4599;50.906;6.786;2022-08-03T10:59:56;5.40;;;1.90;;
9128;SDS011;4599;50.906;6.786;2022-08-03T11:08:24;6.40;;;1.83;;
9128;SDS011;4599;50.906;6.786;2022-08-03T11:12:28;7.35;;;2.00;;
9128;SDS011;4599;50.906;6.786;2022-08-03T11:16:33;3.55;;;1.90;;
9128;SDS011;4599;50.906;6.786;2022-08-03T11:20:44;5.20;;;1.80;;
9128;SDS011;4599;50.906;6.786;2022-08-03T11:24:59;5.65;;;1.75;;
9128;SDS011;4599;50.906;6.786;2022-08-03T11:33:28;5.15;;;1.80;;
9128;SDS011;4599;50.906;6.786;2022-08-03T11:37:31;6.68;;;1.80;;
9128;SDS011;4599;50.906;6.786;2022-08-03T11:41:33;5.85;;;1.52;;
9128;SDS011;4599;50.906;6.786;2022-08-03T11:45:55;3.65;;;1.65;;
9128;SDS011;4599;50.906;6.786;2022-08-03T11:49:58;8.23;;;2.00;;
9128;SDS011;4599;50.906;6.786;2022-08-03T11:54:04;8.95;;;2.00;;
9128;SDS011;4599;50.906;6.786;2022-08-03T11:58:08;4.25;;;1.70;;
9128;SDS011;4599;50.906;6.786;2022-08-03T12:02:35;5.55;;;1.85;;
9128;SDS011;4599;50.906;6.786;2022-08-03T12:06:37;7.80;;;2.05;;
9128;SDS011;4599;50.906;6.786;2022-08-03T12:10:46;7.53;;;1.85;;
9128;SDS011;4599;50.906;6.786;2022-08-03T12:14:49;5.28;;;2.08;;
9128;SDS011;4599;50.906;6.786;2022-08-03T12:18:55;7.45;;;1.98;;
9128;SDS011;4599;50.906;6.786;2022-08-03T12:23:01;6.97;;;2.10;;
9128;SDS011;4599;50.906;6.786;2022-08-03T12:27:06;10.45;;;2.10;;
9128;SDS011;4599;50.906;6.786;2022-08-03T12:31:07;3.35;;;1.73;;
9128;SDS011;4599;50.906;6.786;2022-08-03T12:35:10;8.77;;;2.10;;
9128;SDS011;4599;50.906;6.786;2022-08-03T12:39:22;5.32;;;2.08;;
9128;SDS011;4599;50.906;6.786;2022-08-03T12:43:26;4.55;;;2.10;;
9128;SDS011;4599;50.906;6.786;2022-08-03T12:47:48;9.00;;;2.15;;
9128;SDS011;4599;50.906;6.786;2022-08-03T12:51:55;5.10;;;2.08;;
9128;SDS011;4599;50.906;6.786;2022-08-03T12:56:00;4.57;;;1.90;;
9128;SDS011;4599;50.906;6.786;2022-08-03T13:00:11;6.15;;;1.95;;
9128;SDS011;4599;50.906;6.786;2022-08-03T13:04:31;6.13;;;1.80;;
9128;SDS011;4599;50.906;6.786;2022-08-03T13:08:34;6.03;;;2.10;;
9128;SDS011;4599;50.906;6.786;2022-08-03T13:12:44;5.22;;;1.80;;
9128;SDS011;4599;50.906;6.786;2022-08-03T13:16:48;9.73;;;1.77;;
9128;SDS011;4599;50.906;6.786;2022-08-03T13:20:49;5.30;;;2.10;;
9128;SDS011;4599;50.906;6.786;2022-08-03T13:24:51;6.55;;;2.03;;
9128;SDS011;4599;50.906;6.786;2022-08-03T13:28:54;2.13;;;1.70;;
9128;SDS011;4599;50.906;6.786;2022-08-03T13:32:57;7.20;;;2.00;;
9128;SDS011;4599;50.906;6.786;2022-08-03T13:36:59;7.07;;;2.15;;
9128;SDS011;4599;50.906;6.786;2022-08-03T13:41:09;4.85;;;1.70;;
9128;SDS011;4599;50.906;6.786;2022-08-03T13:45:15;4.60;;;1.80;;
9128;SDS011;4599;50.906;6.786;2022-08-03T13:49:18;5.55;;;1.80;;
9128;SDS011;4599;50.906;6.786;2022-08-03T13:53:20;2.28;;;1.88;;
9128;SDS011;4599;50.906;6.786;2022-08-03T13:57:21;4.85;;;1.90;;
9128;SDS011;4599;50.906;6.786;2022-08-03T14:01:43;4.00;;;1.58;;
9128;SDS011;4599;50.906;6.786;2022-08-03T14:05:57;5.20;;;1.75;;
9128;SDS011;4599;50.906;6.786;2022-08-03T14:09:58;3.70;;;1.60;;
9128;SDS011;4599;50.906;6.786;2022-08-03T14:14:00;9.35;;;1.90;;
9128;SDS011;4599;50.906;6.786;2022-08-03T14:18:02;6.53;;;1.88;;
9128;SDS011;4599;50.906;6.786;2022-08-03T14:22:05;7.13;;;1.98;;
9128;SDS011;4599;50.906;6.786;2022-08-03T14:26:07;7.00;;;1.70;;
9128;SDS011;4599;50.906;6.786;2022-08-03T14:30:09;9.68;;;1.85;;
9128;SDS011;4599;50.906;6.786;2022-08-03T14:34:12;3.22;;;1.85;;
9128;SDS011;4599;50.906;6.786;2022-08-03T14:38:15;6.35;;;1.90;;
9128;SDS011;4599;50.906;6.786;2022-08-03T14:42:17;7.20;;;1.90;;
9128;SDS011;4599;50.906;6.786;2022-08-03T14:46:18;7.78;;;1.90;;
9128;SDS011;4599;50.906;6.786;2022-08-03T14:50:20;2.67;;;1.58;;
9128;SDS011;4599;50.906;6.786;2022-08-03T14:54:42;5.38;;;1.48;;
9128;SDS011;4599;50.906;6.786;2022-08-03T14:58:45;2.78;;;1.50;;
9128;SDS011;4599;50.906;6.786;2022-08-03T15:02:47;5.45;;;1.88;;
9128;SDS011;4599;50.906;6.786;2022-08-03T15:06:49;9.10;;;2.10;;
9128;SDS011;4599;50.906;6.786;2022-08-03T15:10:53;5.38;;;1.63;;
9128;SDS011;4599;50.906;6.786;2022-08-03T15:14:54;3.10;;;1.65;;
9128;SDS011;4599;50.906;6.786;2022-08-03T15:18:57;6.85;;;1.70;;
9128;SDS011;4599;50.906;6.786;2022-08-03T15:23:00;3.50;;;1.60;;
9128;SDS011;4599;50.906;6.786;2022-08-03T15:27:03;2.75;;;1.60;;
9128;SDS011;4599;50.906;6.786;2022-08-03T15:31:06;6.55;;;2.00;;
9128;SDS011;4599;50.906;6.786;2022-08-03T15:35:08;7.32;;;1.67;;
9128;SDS011;4599;50.906;6.786;2022-08-03T15:39:09;4.55;;;1.75;;
9128;SDS011;4599;50.906;6.786;2022-08-03T15:43:12;6.05;;;1.48;;
9128;SDS011;4599;50.906;6.786;2022-08-03T15:47:14;7.38;;;1.63;;
9128;SDS011;4599;50.906;6.786;2022-08-03T15:51:15;2.65;;;1.50;;
9128;SDS011;4599;50.906;6.786;2022-08-03T15:55:17;3.33;;;1.55;;
9128;SDS011;4599;50.906;6.786;2022-08-03T15:59:20;4.57;;;1.60;;
9128;SDS011;4599;50.906;6.786;2022-08-03T16:03:21;3.45;;;1.52;;
9128;SDS011;4599;50.906;6.786;2022-08-03T16:07:23;4.68;;;1.75;;
9128;SDS011;4599;50.906;6.786;2022-08-03T16:11:24;3.60;;;1.67;;
9128;SDS011;4599;50.906;6.786;2022-08-03T16:15:28;6.25;;;1.52;;
9128;SDS011;4599;50.906;6.786;2022-08-03T16:19:29;2.22;;;1.52;;
9128;SDS011;4599;50.906;6.786;2022-08-03T16:23:31;7.78;;;1.60;;
9128;SDS011;4599;50.906;6.786;2022-08-03T16:27:34;3.47;;;1.50;;
9128;SDS011;4599;50.906;6.786;2022-08-03T16:31:57;3.05;;;1.75;;
9128;SDS011;4599;50.906;6.786;2022-08-03T16:35:58;4.20;;;1.73;;
9128;SDS011;4599;50.906;6.786;2022-08-03T16:40:01;5.70;;;1.60;;
9128;SDS011;4599;50.906;6.786;2022-08-03T16:44:03;4.65;;;1.55;;
9128;SDS011;4599;50.906;6.786;2022-08-03T16:48:11;4.50;;;2.03;;
9128;SDS011;4599;50.906;6.786;2022-08-03T16:52:13;4.80;;;1.40;;
9128;SDS011;4599;50.906;6.786;2022-08-03T16:56:18;4.95;;;1.40;;
9128;SDS011;4599;50.906;6.786;2022-08-03T17:00:19;1.75;;;1.50;;
9128;SDS011;4599;50.906;6.786;2022-08-03T17:04:36;5.65;;;1.55;;
9128;SDS011;4599;50.906;6.786;2022-08-03T17:08:40;2.03;;;1.30;;
9128;SDS011;4599;50.906;6.786;2022-08-03T17:12:55;3.20;;;1.25;;
9128;SDS011;4599;50.906;6.786;2022-08-03T17:16:57;2.75;;;1.30;;
9128;SDS011;4599;50.906;6.786;2022-08-03T17:21:03;5.30;;;1.30;;
9128;SDS011;4599;50.906;6.786;2022-08-03T17:25:06;9.10;;;1.50;;
9128;SDS011;4599;50.906;6.786;2022-08-03T17:29:11;7.13;;;1.73;;
9128;SDS011;4599;50.906;6.786;2022-08-03T17:33:13;4.43;;;1.50;;
9128;SDS011;4599;50.906;6.786;2022-08-03T17:37:22;2.65;;;1.40;;
9128;SDS011;4599;50.906;6.786;2022-08-03T17:41:44;3.08;;;1.52;;
9128;SDS011;4599;50.906;6.786;2022-08-03T17:45:50;7.03;;;1.90;;
9128;SDS011;4599;50.906;6.786;2022-08-03T17:49:55;4.03;;;1.60;;
9128;SDS011;4599;50.906;6.786;2022-08-03T17:53:59;11.45;;;1.65;;
9128;SDS011;4599;50.906;6.786;2022-08-03T17:58:19;1.80;;;1.35;;
9128;SDS011;4599;50.906;6.786;2022-08-03T18:02:33;6.55;;;1.73;;
9128;SDS011;4599;50.906;6.786;2022-08-03T18:06:48;6.20;;;1.55;;
9128;SDS011;4599;50.906;6.786;2022-08-03T18:10:59;4.25;;;1.77;;
9128;SDS011;4599;50.906;6.786;2022-08-03T18:15:14;3.47;;;1.60;;
9128;SDS011;4599;50.906;6.786;2022-08-03T18:19:25;5.10;;;1.67;;
9128;SDS011;4599;50.906;6.786;2022-08-03T18:23:47;5.45;;;1.85;;
9128;SDS011;4599;50.906;6.786;2022-08-03T18:28:11;4.65;;;1.60;;
9128;SDS011;4599;50.906;6.786;2022-08-03T18:32:15;5.50;;;4.13;;
9128;SDS011;4599;50.906;6.786;2022-08-03T18:36:20;5.38;;;2.95;;
9128;SDS011;4599;50.906;6.786;2022-08-03T18:40:33;3.70;;;2.80;;
9128;SDS011;4599;50.906;6.786;2022-08-03T18:44:50;5.85;;;3.90;;
9128;SDS011;4599;50.906;6.786;2022-08-03T18:48:58;5.82;;;3.17;;
9128;SDS011;4599;50.906;6.786;2022-08-03T18:53:14;11.38;;;3.38;;
9128;SDS011;4599;50.906;6.786;2022-08-03T18:57:20;6.45;;;2.40;;
9128;SDS011;4599;50.906;6.786;2022-08-03T19:01:37;2.88;;;1.60;;
9128;SDS011;4599;50.906;6.786;2022-08-03T19:06:02;5.60;;;1.65;;
9128;SDS011;4599;50.906;6.786;2022-08-03T19:10:16;6.47;;;1.80;;
9128;SDS011;4599;50.906;6.786;2022-08-03T19:14:21;4.00;;;1.30;;
9128;SDS011;4599;50.906;6.786;2022-08-03T19:18:31;2.92;;;1.40;;
9128;SDS011;4599;50.906;6.786;2022-08-03T19:22:35;2.15;;;1.25;;
9128;SDS011;4599;50.906;6.786;2022-08-03T19:26:37;5.05;;;1.38;;
9128;SDS011;4599;50.906;6.786;2022-08-03T19:30:40;8.57;;;1.50;;
9128;SDS011;4599;50.906;6.786;2022-08-03T19:34:55;6.07;;;1.80;;
9128;SDS011;4599;50.906;6.786;2022-08-03T19:38:59;3.17;;;1.25;;
9128;SDS011;4599;50.906;6.786;2022-08-03T19:43:03;4.75;;;1.50;;
9128;SDS011;4599;50.906;6.786;2022-08-03T19:47:10;2.40;;;1.30;;
9128;SDS011;4599;50.906;6.786;2022-08-03T19:51:19;8.73;;;1.40;;
9128;SDS011;4599;50.906;6.786;2022-08-03T19:55:42;4.65;;;1.30;;
9128;SDS011;4599;50.906;6.786;2022-08-03T19:59:49;5.97;;;1.27;;
9128;SDS011;4599;50.906;6.786;2022-08-03T20:03:52;2.50;;;1.20;;
9128;SDS011;4599;50.906;6.786;2022-08-03T20:07:56;5.50;;;1.52;;
9128;SDS011;4599;50.906;6.786;2022-08-03T20:11:59;2.70;;;1.40;;
9128;SDS011;4599;50.906;6.786;2022-08-03T20:16:01;4.88;;;1.42;;
9128;SDS011;4599;50.906;6.786;2022-08-03T20:20:04;1.55;;;1.30;;
9128;SDS011;4599;50.906;6.786;2022-08-03T20:24:09;2.70;;;1.40;;
9128;SDS011;4599;50.906;6.786;2022-08-03T20:28:27;2.83;;;1.27;;
9128;SDS011;4599;50.906;6.786;2022-08-03T20:32:31;3.28;;;1.30;;
9128;SDS011;4599;50.906;6.786;2022-08-03T20:36:33;4.57;;;1.45;;
9128;SDS011;4599;50.906;6.786;2022-08-03T20:40:36;7.55;;;1.52;;
9128;SDS011;4599;50.906;6.786;2022-08-03T20:44:41;6.35;;;1.50;;
9128;SDS011;4599;50.906;6.786;2022-08-03T20:48:59;3.17;;;1.20;;
9128;SDS011;4599;50.906;6.786;2022-08-03T20:53:05;5.97;;;1.85;;
9128;SDS011;4599;50.906;6.786;2022-08-03T20:57:08;2.25;;;1.45;;
9128;SDS011;4599;50.906;6.786;2022-08-03T21:01:11;4.35;;;1.55;;
9128;SDS011;4599;50.906;6.786;2022-08-03T21:05:12;5.00;;;2.22;;
9128;SDS011;4599;50.906;6.786;2022-08-03T21:09:16;3.13;;;1.50;;
9128;SDS011;4599;50.906;6.786;2022-08-03T21:13:21;2.88;;;1.42;;
9128;SDS011;4599;50.906;6.786;2022-08-03T21:17:25;4.38;;;1.50;;
9128;SDS011;4599;50.906;6.786;2022-08-03T21:21:41;4.33;;;1.37;;
9128;SDS011;4599;50.906;6.786;2022-08-03T21:25:47;3.78;;;1.65;;
9128;SDS011;4599;50.906;6.786;2022-08-03T21:29:52;4.50;;;1.87;;
9128;SDS011;4599;50.906;6.786;2022-08-03T21:33:55;6.20;;;1.77;;
9128;SDS011;4599;50.906;6.786;2022-08-03T21:38:00;6.13;;;1.70;;
9128;SDS011;4599;50.906;6.786;2022-08-03T21:42:01;3.03;;;1.70;;
9128;SDS011;4599;50.906;6.786;2022-08-03T21:46:06;4.97;;;1.77;;
9128;SDS011;4599;50.906;6.786;2022-08-03T21:50:08;3.97;;;1.77;;
9128;SDS011;4599;50.906;6.786;2022-08-03T21:54:13;3.63;;;1.50;;
9128;SDS011;4599;50.906;6.786;2022-08-03T21:58:15;3.30;;;1.50;;
9128;SDS011;4599;50.906;6.786;2022-08-03T22:02:24;5.87;;;1.67;;
9128;SDS011;4599;50.906;6.786;2022-08-03T22:06:31;3.77;;;1.37;;
9128;SDS011;4599;50.906;6.786;2022-08-03T22:10:33;7.30;;;1.73;;
9128;SDS011;4599;50.906;6.786;2022-08-03T22:14:36;5.47;;;2.10;;
9128;SDS011;4599;50.906;6.786;2022-08-03T22:18:42;3.50;;;1.50;;
9128;SDS011;4599;50.906;6.786;2022-08-03T22:22:45;4.63;;;1.73;;
9128;SDS011;4599;50.906;6.786;2022-08-03T22:26:56;8.00;;;1.77;;
9128;SDS011;4599;50.906;6.786;2022-08-03T22:30:59;3.57;;;1.60;;
9128;SDS011;4599;50.906;6.786;2022-08-03T22:35:22;5.10;;;1.57;;
9128;SDS011;4599;50.906;6.786;2022-08-03T22:39:25;2.60;;;1.73;;
9128;SDS011;4599;50.906;6.786;2022-08-03T22:43:27;4.20;;;1.80;;
9128;SDS011;4599;50.906;6.786;2022-08-03T22:47:29;3.63;;;1.60;;
9128;SDS011;4599;50.906;6.786;2022-08-03T22:51:34;4.20;;;1.83;;
9128;SDS011;4599;50.906;6.786;2022-08-03T22:55:37;5.67;;;1.67;;
9128;SDS011;4599;50.906;6.786;2022-08-03T22:59:39;6.97;;;1.80;;
9128;SDS011;4599;50.906;6.786;2022-08-03T23:03:42;4.30;;;1.73;;
9128;SDS011;4599;50.906;6.786;2022-08-03T23:08:03;3.37;;;1.53;;
9128;SDS011;4599;50.906;6.786;2022-08-03T23:12:08;5.97;;;1.90;;
9128;SDS011;4599;50.906;6.786;2022-08-03T23:16:14;5.07;;;1.57;;
9128;SDS011;4599;50.906;6.786;2022-08-03T23:20:29;6.83;;;1.70;;
9128;SDS011;4599;50.906;6.786;2022-08-03T23:24:33;3.17;;;1.63;;
9128;SDS011;4599;50.906;6.786;2022-08-03T23:28:35;7.27;;;2.03;;
9128;SDS011;4599;50.906;6.786;2022-08-03T23:32:40;2.53;;;1.60;;
9128;SDS011;4599;50.906;6.786;2022-08-03T23:36:43;2.57;;;1.70;;
9128;SDS011;4599;50.906;6.786;2022-08-03T23:40:49;2.43;;;1.40;;
9128;SDS011;4599;50.906;6.786;2022-08-03T23:44:52;4.43;;;1.67;;
9128;SDS011;4599;50.906;6.786;2022-08-03T23:48:55;3.03;;;1.60;;
9128;SDS011;4599;50.906;6.786;2022-08-03T23:52:59;4.93;;;1.83;;
9128;SDS011;4599;50.906;6.786;2022-08-03T23:57:16;6.07;;;1.87;;
